createdAt,value
2022-11-12T00:00:59.422Z,53.10
2022-11-12T00:03:27.192Z,42.63
2022-11-12T00:05:54.792Z,41.63
2022-11-12T00:08:21.854Z,44.23
2022-11-12T00:10:49.121Z,41.53
2022-11-12T00:13:16.181Z,39.80
2022-11-12T00:15:43.286Z,41.60
2022-11-12T00:18:10.453Z,47.60
2022-11-12T00:20:37.521Z,42.00
2022-11-12T00:23:04.736Z,39.90
2022-11-12T00:25:31.985Z,40.50
2022-11-12T00:28:07.147Z,45.37
2022-11-12T00:30:36.727Z,38.07
2022-11-12T00:33:05.310Z,41.73
2022-11-12T00:35:33.288Z,46.63
2022-11-12T00:38:00.992Z,43.97
2022-11-12T00:40:28.745Z,39.10
2022-11-12T00:42:55.792Z,44.10
2022-11-12T00:45:22.788Z,39.57
2022-11-12T00:47:49.930Z,43.60
2022-11-12T00:50:17.345Z,40.07
2022-11-12T00:52:44.410Z,42.80
2022-11-12T00:55:11.605Z,44.40
2022-11-12T00:57:38.698Z,42.83
2022-11-12T01:00:07.751Z,37.23
2022-11-12T01:02:42.413Z,44.60
2022-11-12T01:05:11.257Z,40.83
2022-11-12T01:07:38.510Z,43.20
2022-11-12T01:10:06.188Z,38.43
2022-11-12T01:12:33.516Z,45.67
2022-11-12T01:15:00.533Z,46.93
2022-11-12T01:17:27.724Z,39.13
2022-11-12T01:19:56.241Z,39.13
2022-11-12T01:22:24.087Z,31.80
2022-11-12T01:24:51.056Z,34.33
2022-11-12T01:27:18.061Z,35.77
2022-11-12T01:29:45.053Z,39.03
2022-11-12T01:32:12.112Z,39.60
2022-11-12T01:34:39.110Z,35.90
2022-11-12T01:37:06.079Z,38.03
2022-11-12T01:39:33.137Z,31.83
2022-11-12T01:42:00.047Z,33.60
2022-11-12T01:44:31.593Z,23.33
2022-11-12T01:47:21.953Z,22.13
2022-11-12T01:50:07.787Z,21.50
2022-11-12T01:52:49.657Z,22.30
2022-11-12T01:55:24.040Z,29.87
2022-11-12T01:57:59.057Z,22.80
2022-11-12T02:00:26.064Z,22.93
2022-11-12T02:02:59.045Z,24.00
2022-11-12T02:05:28.123Z,22.67
2022-11-12T02:07:57.765Z,25.33
2022-11-12T02:10:25.473Z,21.90
2022-11-12T02:13:13.065Z,23.20
2022-11-12T02:15:41.326Z,22.97
2022-11-12T02:18:09.226Z,21.17
2022-11-12T02:20:37.546Z,25.57
2022-11-12T02:23:06.293Z,25.50
2022-11-12T02:25:33.454Z,19.40
2022-11-12T02:28:02.186Z,22.77
2022-11-12T02:30:36.257Z,22.50
2022-11-12T02:33:04.043Z,21.93
2022-11-12T02:35:31.910Z,21.97
2022-11-12T02:37:59.142Z,20.77
2022-11-12T02:40:26.573Z,20.20
2022-11-12T02:42:53.503Z,20.53
2022-11-12T02:45:21.183Z,21.83
2022-11-12T02:47:48.319Z,24.43
2022-11-12T02:50:15.903Z,23.27
2022-11-12T02:52:42.819Z,23.20
2022-11-12T02:55:11.591Z,21.53
2022-11-12T02:57:39.728Z,24.03
2022-11-12T03:00:11.271Z,20.83
2022-11-12T03:02:42.950Z,20.03
2022-11-12T03:05:15.533Z,20.63
2022-11-12T03:07:42.499Z,25.60
2022-11-12T03:10:09.861Z,18.67
2022-11-12T03:12:36.819Z,19.20
2022-11-12T03:15:03.920Z,20.00
2022-11-12T03:17:30.840Z,17.43
2022-11-12T03:19:57.861Z,18.97
2022-11-12T03:22:24.717Z,17.17
2022-11-12T03:24:51.749Z,17.17
2022-11-12T03:27:18.673Z,17.60
2022-11-12T03:29:45.636Z,16.30
2022-11-12T03:32:12.578Z,15.80
2022-11-12T03:34:39.478Z,16.87
2022-11-12T03:37:09.656Z,17.23
2022-11-12T03:39:37.008Z,16.53
2022-11-12T03:42:04.223Z,16.63
2022-11-12T03:44:31.422Z,15.83
2022-11-12T03:46:58.358Z,15.23
2022-11-12T03:49:25.370Z,15.60
2022-11-12T03:51:52.374Z,15.60
2022-11-12T03:54:22.468Z,15.23
2022-11-12T03:56:49.426Z,14.53
2022-11-12T03:59:16.851Z,16.37
2022-11-12T04:01:43.830Z,15.10
2022-11-12T04:04:11.102Z,14.17
2022-11-12T04:06:56.591Z,13.93
2022-11-12T04:09:23.564Z,14.73
2022-11-12T04:11:50.428Z,15.70
2022-11-12T04:14:17.407Z,16.13
2022-11-12T04:17:02.853Z,18.00
2022-11-12T04:19:48.323Z,18.80
2022-11-12T04:22:15.186Z,17.23
2022-11-12T04:25:01.958Z,14.53
2022-11-12T04:27:32.875Z,15.40
2022-11-12T04:30:21.526Z,14.17
2022-11-12T04:32:54.788Z,14.33
2022-11-12T04:35:25.967Z,16.10
2022-11-12T04:37:53.324Z,14.77
2022-11-12T04:40:44.171Z,15.60
2022-11-12T04:43:31.794Z,14.30
2022-11-12T04:46:02.928Z,15.57
2022-11-12T04:48:30.833Z,14.77
2022-11-12T04:51:00.769Z,14.97
2022-11-12T04:53:29.030Z,17.73
2022-11-12T04:55:57.635Z,18.10
2022-11-12T04:58:25.304Z,29.40
2022-11-12T05:00:52.714Z,40.43
2022-11-12T05:03:19.700Z,39.10
2022-11-12T05:05:46.670Z,32.00
2022-11-12T05:08:13.621Z,21.90
2022-11-12T05:10:40.595Z,19.57
2022-11-12T05:13:07.729Z,21.50
2022-11-12T05:15:34.770Z,18.40
2022-11-12T05:18:01.930Z,19.63
2022-11-12T05:20:32.749Z,18.37
2022-11-12T05:23:06.766Z,16.57
2022-11-12T05:25:36.163Z,17.20
2022-11-12T05:28:03.137Z,17.70
2022-11-12T05:30:31.224Z,17.43
2022-11-12T05:32:58.087Z,17.77
2022-11-12T05:35:25.033Z,19.20
2022-11-12T05:37:51.987Z,17.93
2022-11-12T05:40:18.972Z,18.90
2022-11-12T05:42:45.875Z,20.10
2022-11-12T05:45:12.933Z,18.77
2022-11-12T05:47:39.996Z,20.03
2022-11-12T05:50:07.885Z,21.80
2022-11-12T05:52:34.880Z,22.33
2022-11-12T05:55:01.871Z,19.90
2022-11-12T05:57:28.911Z,17.73
2022-11-12T05:59:55.833Z,20.93
2022-11-12T06:02:22.893Z,18.80
2022-11-12T06:04:49.956Z,17.47
2022-11-12T06:07:16.930Z,18.33
2022-11-12T06:09:43.818Z,18.00
2022-11-12T06:12:10.812Z,18.60
2022-11-12T06:14:37.884Z,19.70
2022-11-12T06:17:04.851Z,18.10
2022-11-12T06:19:31.804Z,20.97
2022-11-12T06:21:58.815Z,38.27
2022-11-12T06:24:27.482Z,44.00
2022-11-12T06:26:57.709Z,39.43
2022-11-12T06:29:24.679Z,31.23
2022-11-12T06:31:51.874Z,29.50
2022-11-12T06:34:18.831Z,25.63
2022-11-12T06:36:48.827Z,26.07
2022-11-12T06:39:15.786Z,22.30
2022-11-12T06:41:42.773Z,19.20
2022-11-12T06:44:09.734Z,18.73
2022-11-12T06:46:36.842Z,18.47
2022-11-12T06:49:03.780Z,32.83
2022-11-12T06:51:30.809Z,43.73
2022-11-12T06:53:57.755Z,37.73
2022-11-12T06:56:28.321Z,33.43
2022-11-12T06:58:55.310Z,25.10
2022-11-12T07:01:23.706Z,21.07
2022-11-12T07:03:54.101Z,21.90
2022-11-12T07:06:21.250Z,20.90
2022-11-12T07:08:49.740Z,29.70
2022-11-12T07:11:18.571Z,28.53
2022-11-12T07:13:46.522Z,22.07
2022-11-12T07:16:18.646Z,19.50
2022-11-12T07:18:49.973Z,23.30
2022-11-12T07:21:19.541Z,17.90
2022-11-12T07:23:47.735Z,17.37
2022-11-12T07:26:25.847Z,16.77
2022-11-12T07:28:53.737Z,16.70
2022-11-12T07:31:21.399Z,13.10
2022-11-12T07:33:51.511Z,13.37
2022-11-12T07:36:20.386Z,13.57
2022-11-12T07:38:47.747Z,13.87
2022-11-12T07:41:20.628Z,13.50
2022-11-12T07:43:48.628Z,20.80
2022-11-12T07:46:17.540Z,35.13
2022-11-12T07:48:46.325Z,22.67
2022-11-12T07:51:14.418Z,18.67
2022-11-12T07:53:42.335Z,16.50
2022-11-12T07:56:14.386Z,24.97
2022-11-12T07:58:41.425Z,22.13
2022-11-12T08:01:32.778Z,21.70
2022-11-12T08:04:00.955Z,15.20
2022-11-12T08:06:29.288Z,11.60
2022-11-12T08:08:57.475Z,10.87
2022-11-12T08:11:24.859Z,11.00
2022-11-12T08:13:52.231Z,9.00
2022-11-12T08:16:19.615Z,10.87
2022-11-12T08:18:47.147Z,10.40
2022-11-12T08:21:16.467Z,8.30
2022-11-12T08:23:43.643Z,10.83
2022-11-12T08:26:16.250Z,8.80
2022-11-12T08:28:43.243Z,14.40
2022-11-12T08:31:18.905Z,9.93
2022-11-12T08:33:46.322Z,10.23
2022-11-12T08:36:15.352Z,8.40
2022-11-12T08:38:43.448Z,15.43
2022-11-12T08:41:20.147Z,8.73
2022-11-12T08:43:47.243Z,11.97
2022-11-12T08:46:14.202Z,7.43
2022-11-12T08:48:41.208Z,9.60
2022-11-12T08:51:08.615Z,6.90
2022-11-12T08:53:35.705Z,6.67
2022-11-12T08:56:02.799Z,5.70
2022-11-12T08:58:30.214Z,6.70
2022-11-12T09:00:58.171Z,4.90
2022-11-12T09:03:26.451Z,5.87
2022-11-12T09:05:54.169Z,6.83
2022-11-12T09:08:23.887Z,4.50
2022-11-12T09:10:51.764Z,8.10
2022-11-12T09:13:19.080Z,5.73
2022-11-12T09:15:49.181Z,8.40
2022-11-12T09:18:18.731Z,15.30
2022-11-12T09:20:46.128Z,10.00
2022-11-12T09:23:15.237Z,5.47
2022-11-12T09:25:42.903Z,5.70
2022-11-12T09:28:19.648Z,5.20
2022-11-12T09:30:49.341Z,5.57
2022-11-12T09:33:18.809Z,5.17
2022-11-12T09:35:46.385Z,5.30
2022-11-12T09:38:15.456Z,5.50
2022-11-12T09:41:34.799Z,8.07
2022-11-12T09:44:04.768Z,5.83
2022-11-12T09:46:50.430Z,7.90
2022-11-12T09:49:44.309Z,3.57
2022-11-12T09:52:27.039Z,4.43
2022-11-12T09:55:12.694Z,4.83
2022-11-12T09:57:39.627Z,7.30
2022-11-12T10:00:33.197Z,6.20
2022-11-12T10:03:31.532Z,5.73
2022-11-12T10:06:10.599Z,5.77
2022-11-12T10:09:11.377Z,6.30
2022-11-12T10:12:32.785Z,8.23
2022-11-12T10:15:57.892Z,7.03
2022-11-12T10:19:02.478Z,27.70
2022-11-12T10:21:43.741Z,10.10
2022-11-12T10:24:11.730Z,11.07
2022-11-12T10:26:40.344Z,5.93
2022-11-12T10:29:28.344Z,4.77
2022-11-12T10:31:55.338Z,5.23
2022-11-12T10:34:24.405Z,4.00
2022-11-12T10:37:02.710Z,5.03
2022-11-12T10:39:47.748Z,8.63
2022-11-12T10:42:17.449Z,5.73
2022-11-12T10:44:45.834Z,9.43
2022-11-12T10:47:25.848Z,10.07
2022-11-12T10:50:18.196Z,5.20
2022-11-12T10:53:00.422Z,6.13
2022-11-12T10:55:28.911Z,8.37
2022-11-12T10:58:19.492Z,5.77
2022-11-12T11:01:02.114Z,10.33
2022-11-12T11:03:35.979Z,7.00
2022-11-12T11:06:21.639Z,10.30
2022-11-12T11:08:51.096Z,10.57
2022-11-12T11:11:26.982Z,8.73
2022-11-12T11:13:58.013Z,10.80
2022-11-12T11:16:30.055Z,12.83
2022-11-12T11:19:02.136Z,8.93
2022-11-12T11:22:02.965Z,14.47
2022-11-12T11:24:46.376Z,8.90
2022-11-12T11:27:37.137Z,5.03
2022-11-12T11:30:20.850Z,7.50
2022-11-12T11:33:18.297Z,5.63
2022-11-12T11:36:26.605Z,4.57
2022-11-12T11:39:36.167Z,3.90
2022-11-12T11:43:08.165Z,6.47
2022-11-12T11:46:16.625Z,6.27
2022-11-12T11:49:15.330Z,4.50
2022-11-12T11:52:05.164Z,5.00
2022-11-12T11:55:26.472Z,4.60
2022-11-12T11:58:28.603Z,6.03
2022-11-12T12:01:26.405Z,5.13
2022-11-12T12:20:03.756Z,5.50
2022-11-12T12:22:46.874Z,6.10
2022-11-12T12:25:32.886Z,4.00
2022-11-12T12:33:59.132Z,4.53
2022-11-12T12:36:41.601Z,7.33
2022-11-12T12:39:19.509Z,7.90
2022-11-12T12:42:01.996Z,4.00
2022-11-12T12:44:59.407Z,5.73
2022-11-12T12:47:29.869Z,5.47
2022-11-12T12:50:01.424Z,5.43
2022-11-12T12:52:28.358Z,8.70
2022-11-12T12:54:56.534Z,4.70
2022-11-12T12:57:43.852Z,3.93
2022-11-12T13:00:35.598Z,8.00
2022-11-12T13:03:02.680Z,3.70
2022-11-12T13:05:36.018Z,5.17
2022-11-12T13:08:24.160Z,2.97
2022-11-12T13:10:52.289Z,3.70
2022-11-12T13:13:39.486Z,3.30
2022-11-12T13:16:08.289Z,3.00
2022-11-12T13:18:59.819Z,3.30
2022-11-12T13:21:27.828Z,8.77
2022-11-12T13:24:08.617Z,3.37
2022-11-12T13:26:56.954Z,5.60
2022-11-12T13:29:44.242Z,8.63
2022-11-12T13:32:32.389Z,3.73
2022-11-12T13:35:26.089Z,2.50
2022-11-12T13:38:16.049Z,4.67
2022-11-12T13:41:09.257Z,5.67
2022-11-12T13:43:44.786Z,2.53
2022-11-12T13:46:27.843Z,2.90
2022-11-12T13:49:16.852Z,4.40
2022-11-12T13:51:52.215Z,2.20
2022-11-12T13:54:39.231Z,4.60
2022-11-12T13:57:41.458Z,2.50
2022-11-12T14:00:28.344Z,18.80
2022-11-12T14:03:07.211Z,5.50
2022-11-12T14:05:36.228Z,2.77
2022-11-12T14:08:24.623Z,9.83
2022-11-12T14:11:36.307Z,2.43
2022-11-12T14:15:01.864Z,6.73
2022-11-12T14:18:08.997Z,3.00
2022-11-12T14:20:38.789Z,2.20
2022-11-12T14:23:23.095Z,2.07
2022-11-12T14:25:53.522Z,5.63
2022-11-12T14:28:35.361Z,1.70
2022-11-12T14:31:04.057Z,2.17
2022-11-12T14:33:32.718Z,5.10
2022-11-12T14:36:14.881Z,3.10
2022-11-12T14:39:00.371Z,2.00
2022-11-12T14:41:37.381Z,3.30
2022-11-12T14:44:13.129Z,2.20
2022-11-12T14:46:50.001Z,2.60
2022-11-12T14:49:44.385Z,4.40
2022-11-12T14:52:22.817Z,3.77
2022-11-12T14:54:54.988Z,3.13
2022-11-12T14:57:28.239Z,3.73
2022-11-12T14:59:56.462Z,3.50
2022-11-12T15:02:47.255Z,5.80
2022-11-12T15:05:22.260Z,4.00
2022-11-12T15:08:05.103Z,4.67
2022-11-12T15:10:41.137Z,4.03
2022-11-12T15:13:20.637Z,3.83
2022-11-12T15:16:09.946Z,4.27
2022-11-12T15:18:38.445Z,6.13
2022-11-12T15:21:28.514Z,12.20
2022-11-12T15:24:17.759Z,10.00
2022-11-12T15:26:46.719Z,12.27
2022-11-12T15:29:33.052Z,10.57
2022-11-12T15:32:33.777Z,11.10
2022-11-12T15:35:02.048Z,7.80
2022-11-12T15:37:40.896Z,8.03
2022-11-12T15:40:16.041Z,11.60
2022-11-12T15:42:43.109Z,7.47
2022-11-12T15:45:16.109Z,7.17
2022-11-12T15:47:43.241Z,8.43
2022-11-12T15:50:23.134Z,7.80
2022-11-12T15:52:50.699Z,9.30
2022-11-12T15:55:19.057Z,4.83
2022-11-12T15:57:52.401Z,5.57
2022-11-12T16:00:25.322Z,11.60
2022-11-12T16:03:15.116Z,6.63
2022-11-12T16:05:42.878Z,11.53
2022-11-12T16:08:10.322Z,5.90
2022-11-12T16:10:39.534Z,5.63
2022-11-12T16:13:07.831Z,5.50
2022-11-12T16:15:34.717Z,7.70
2022-11-12T16:18:01.751Z,7.80
2022-11-12T16:20:31.973Z,7.27
2022-11-12T16:22:58.926Z,7.20
2022-11-12T16:25:30.033Z,13.53
2022-11-12T16:27:57.892Z,9.67
2022-11-12T16:30:30.969Z,19.70
2022-11-12T16:32:59.555Z,13.30
2022-11-12T16:35:28.225Z,18.93
2022-11-12T16:37:55.682Z,21.40
2022-11-12T16:40:25.876Z,19.67
2022-11-12T16:42:53.038Z,25.63
2022-11-12T16:45:22.775Z,18.13
2022-11-12T16:47:56.256Z,18.47
2022-11-12T16:50:25.967Z,22.47
2022-11-12T16:52:53.249Z,19.13
2022-11-12T16:55:20.961Z,17.47
2022-11-12T16:57:48.232Z,15.40
2022-11-12T17:00:17.786Z,21.53
2022-11-12T17:02:48.325Z,21.37
2022-11-12T17:05:21.613Z,23.27
2022-11-12T17:07:49.724Z,19.83
2022-11-12T17:10:17.069Z,24.87
2022-11-12T17:12:48.349Z,18.27
2022-11-12T17:15:15.396Z,29.00
2022-11-12T17:17:42.523Z,26.57
2022-11-12T17:20:10.177Z,23.23
2022-11-12T17:22:37.809Z,18.27
2022-11-12T17:25:06.173Z,17.07
2022-11-12T17:27:33.172Z,20.40
2022-11-12T17:30:00.289Z,16.00
2022-11-12T17:32:27.635Z,15.30
2022-11-12T17:34:54.634Z,15.17
2022-11-12T17:37:21.550Z,15.80
2022-11-12T17:39:48.555Z,20.30
2022-11-12T17:42:15.449Z,22.23
2022-11-12T17:44:42.541Z,23.50
2022-11-12T17:47:09.491Z,20.97
2022-11-12T17:49:36.365Z,20.80
2022-11-12T17:52:03.458Z,18.33
2022-11-12T17:54:31.739Z,14.80
2022-11-12T17:56:58.720Z,23.77
2022-11-12T17:59:25.743Z,21.60
2022-11-12T18:01:52.737Z,26.63
2022-11-12T18:04:22.397Z,25.83
2022-11-12T18:06:50.717Z,31.50
2022-11-12T18:09:17.800Z,26.60
2022-11-12T18:11:48.340Z,35.80
2022-11-12T18:14:15.928Z,30.57
2022-11-12T18:16:43.277Z,25.10
2022-11-12T18:19:11.266Z,28.10
2022-11-12T18:21:42.922Z,26.03
2022-11-12T18:24:15.664Z,24.53
2022-11-12T18:26:43.235Z,20.43
2022-11-12T18:29:12.466Z,21.37
2022-11-12T18:31:40.764Z,21.80
2022-11-12T18:34:13.744Z,27.47
2022-11-12T18:36:43.878Z,27.60
2022-11-12T18:39:10.787Z,20.60
2022-11-12T18:41:38.028Z,23.10
2022-11-12T18:44:05.177Z,25.17
2022-11-12T18:46:32.288Z,20.27
2022-11-12T18:48:59.286Z,22.43
2022-11-12T18:51:27.717Z,19.33
2022-11-12T18:53:57.510Z,19.10
2022-11-12T18:56:24.572Z,24.50
2022-11-12T18:58:51.641Z,20.90
2022-11-12T19:01:21.472Z,21.50
2022-11-12T19:03:52.078Z,16.80
2022-11-12T19:06:19.487Z,25.07
2022-11-12T19:08:46.445Z,20.63
2022-11-12T19:11:15.577Z,21.30
2022-11-12T19:13:43.130Z,24.27
2022-11-12T19:16:17.238Z,27.53
2022-11-12T19:18:45.026Z,25.40
2022-11-12T19:21:30.006Z,25.23
2022-11-12T19:23:57.721Z,35.30
2022-11-12T19:26:24.710Z,38.10
2022-11-12T19:28:52.032Z,33.17
2022-11-12T19:31:24.007Z,29.07
2022-11-12T19:33:51.521Z,32.93
2022-11-12T19:36:22.063Z,34.53
2022-11-12T19:38:54.932Z,29.40
2022-11-12T19:41:21.965Z,28.93
2022-11-12T19:43:49.296Z,25.60
2022-11-12T19:46:16.963Z,27.33
2022-11-12T19:48:44.730Z,26.00
2022-11-12T19:51:13.403Z,38.40
2022-11-12T19:53:44.897Z,20.53
2022-11-12T19:56:14.126Z,20.87
2022-11-12T19:58:46.232Z,21.93
2022-11-12T20:01:16.260Z,20.90
2022-11-12T20:03:43.344Z,24.07
2022-11-12T20:06:13.272Z,29.10
2022-11-12T20:08:40.588Z,32.07
2022-11-12T20:11:07.830Z,28.37
2022-11-12T20:13:34.877Z,30.57
2022-11-12T20:16:11.413Z,20.53
2022-11-12T20:18:38.668Z,19.90
2022-11-12T20:21:06.383Z,29.60
2022-11-12T20:23:34.182Z,21.57
2022-11-12T20:26:07.029Z,20.03
2022-11-12T20:28:35.240Z,17.10
2022-11-12T20:31:09.355Z,20.90
2022-11-12T20:33:41.845Z,20.03
2022-11-12T20:36:15.460Z,22.87
2022-11-12T20:38:44.346Z,17.70
2022-11-12T20:41:20.140Z,23.10
2022-11-12T20:43:47.912Z,23.40
2022-11-12T20:46:16.144Z,23.77
2022-11-12T20:48:43.859Z,26.83
2022-11-12T20:51:24.746Z,20.50
2022-11-12T20:53:59.861Z,25.60
2022-11-12T20:56:29.245Z,26.23
2022-11-12T20:58:59.230Z,23.50
2022-11-12T21:01:28.277Z,30.87
2022-11-12T21:03:55.791Z,22.43
2022-11-12T21:06:24.825Z,23.90
2022-11-12T21:08:51.793Z,24.77
2022-11-12T21:11:21.831Z,23.20
2022-11-12T21:13:48.892Z,23.47
2022-11-12T21:16:16.854Z,18.20
2022-11-12T21:18:44.350Z,22.93
2022-11-12T21:21:17.453Z,29.43
2022-11-12T21:23:45.088Z,25.53
2022-11-12T21:26:14.328Z,18.07
2022-11-12T21:28:46.606Z,24.33
2022-11-12T21:31:16.819Z,21.60
2022-11-12T21:33:44.015Z,20.30
2022-11-12T21:36:16.188Z,25.63
2022-11-12T21:38:44.222Z,22.60
2022-11-12T21:41:20.781Z,19.57
2022-11-12T21:43:48.347Z,19.40
2022-11-12T21:46:19.292Z,23.03
2022-11-12T21:48:50.993Z,24.70
2022-11-12T21:51:26.740Z,19.87
2022-11-12T21:53:59.283Z,20.77
2022-11-12T21:56:27.060Z,24.70
2022-11-12T21:58:59.522Z,21.80
2022-11-12T22:01:29.465Z,26.70
2022-11-12T22:03:58.161Z,26.97
2022-11-12T22:06:27.963Z,33.10
2022-11-12T22:08:56.342Z,36.47
2022-11-12T22:11:24.708Z,44.97
2022-11-12T22:13:51.838Z,56.27
2022-11-12T22:16:27.139Z,48.03
2022-11-12T22:18:56.109Z,32.33
2022-11-12T22:21:28.509Z,31.73
2022-11-12T22:23:56.363Z,29.90
2022-11-12T22:26:26.376Z,27.73
2022-11-12T22:28:57.514Z,29.03
2022-11-12T22:31:29.081Z,38.00
2022-11-12T22:33:58.316Z,23.70
2022-11-12T22:36:28.536Z,23.87
2022-11-12T22:38:56.735Z,24.77
2022-11-12T22:41:29.917Z,23.63
2022-11-12T22:43:59.327Z,27.90
2022-11-12T22:46:28.653Z,27.40
2022-11-12T22:48:55.994Z,21.87
2022-11-12T22:51:26.515Z,19.70
2022-11-12T22:54:02.743Z,26.23
2022-11-12T22:56:33.401Z,22.07
2022-11-12T22:59:05.145Z,20.43
2022-11-12T23:01:35.771Z,25.47
2022-11-12T23:04:06.015Z,20.67
2022-11-12T23:06:33.768Z,25.20
2022-11-12T23:09:02.162Z,18.57
2022-11-12T23:11:29.613Z,20.80
2022-11-12T23:13:56.790Z,22.97
2022-11-12T23:16:27.432Z,27.37
2022-11-12T23:18:55.087Z,25.37
2022-11-12T23:21:24.896Z,27.90
2022-11-12T23:23:52.642Z,30.20
2022-11-12T23:26:22.182Z,34.03
2022-11-12T23:28:50.069Z,23.13
2022-11-12T23:31:19.624Z,24.07
2022-11-12T23:33:52.427Z,26.03
2022-11-12T23:36:20.195Z,24.13
2022-11-12T23:38:47.564Z,25.97
2022-11-12T23:41:20.430Z,35.60
2022-11-12T23:43:47.408Z,44.53
2022-11-12T23:46:14.404Z,63.90
2022-11-12T23:48:44.907Z,59.80
2022-11-12T23:51:14.943Z,62.00
2022-11-12T23:53:42.578Z,73.57
2022-11-12T23:56:12.950Z,68.97
2022-11-12T23:58:41.447Z,88.43
